createdAt,value
2022-09-16T00:01:52.330Z,93435.97
2022-09-16T00:04:19.026Z,93424.63
2022-09-16T00:06:45.680Z,93426.34
2022-09-16T00:09:12.357Z,93422.28
2022-09-16T00:11:38.974Z,93411.56
2022-09-16T00:14:05.645Z,93407.03
2022-09-16T00:16:32.730Z,93402.78
2022-09-16T00:19:00.867Z,93398.75
2022-09-16T00:21:28.671Z,93409.31
2022-09-16T00:23:56.454Z,93415.91
2022-09-16T00:26:23.790Z,93410.69
2022-09-16T00:28:50.972Z,93417.53
2022-09-16T00:31:18.472Z,93423.56
2022-09-16T00:33:45.156Z,93420.44
2022-09-16T00:36:14.944Z,93422.31
2022-09-16T00:38:42.631Z,93411.84
2022-09-16T00:41:15.898Z,93420.19
2022-09-16T00:43:48.832Z,93412.91
2022-09-16T00:46:17.287Z,93416.59
2022-09-16T00:48:44.634Z,93415.22
2022-09-16T00:51:13.424Z,93402.44
2022-09-16T00:53:49.757Z,93407.44
2022-09-16T00:56:19.878Z,93410.44
2022-09-16T00:58:52.581Z,93407.22
2022-09-16T01:01:19.753Z,93411.38
2022-09-16T01:03:52.131Z,93415.13
2022-09-16T01:06:19.520Z,93407.25
2022-09-16T01:08:46.691Z,93404.25
2022-09-16T01:11:13.357Z,93409.56
2022-09-16T01:13:40.885Z,93406.22
2022-09-16T01:16:19.215Z,93401.50
2022-09-16T01:19:07.372Z,93408.00
2022-09-16T01:21:38.320Z,93411.44
2022-09-16T01:24:42.361Z,93415.03
2022-09-16T01:27:38.032Z,93422.31
2022-09-16T01:30:08.459Z,93414.63
2022-09-16T01:32:39.810Z,93420.72
2022-09-16T01:35:25.199Z,93421.16
2022-09-16T01:38:13.616Z,93421.84
2022-09-16T01:40:50.803Z,93424.94
2022-09-16T01:43:35.336Z,93419.16
2022-09-16T01:46:31.286Z,93434.53
2022-09-16T01:49:40.933Z,93423.59
2022-09-16T01:52:33.600Z,93425.50
2022-09-16T01:55:04.208Z,93414.78
2022-09-16T01:57:46.140Z,93423.34
2022-09-16T02:00:14.472Z,93425.66
2022-09-16T02:02:50.068Z,93425.41
2022-09-16T02:05:22.814Z,93423.44
2022-09-16T02:07:57.184Z,93426.94
2022-09-16T02:10:28.990Z,93425.00
2022-09-16T02:13:04.108Z,93422.50
2022-09-16T02:15:33.346Z,93416.59
2022-09-16T02:18:10.102Z,93423.88
2022-09-16T02:20:42.566Z,93419.13
2022-09-16T02:23:20.052Z,93415.53
2022-09-16T02:25:49.567Z,93410.56
2022-09-16T02:28:22.984Z,93409.72
2022-09-16T02:30:55.649Z,93409.63
2022-09-16T02:33:25.448Z,93407.38
2022-09-16T02:35:55.597Z,93398.19
2022-09-16T02:38:40.706Z,93399.81
2022-09-16T02:41:09.665Z,93398.19
2022-09-16T02:43:36.912Z,93392.47
2022-09-16T02:46:09.721Z,93392.00
2022-09-16T02:48:42.300Z,93389.28
2022-09-16T02:51:18.923Z,93388.03
2022-09-16T02:53:51.960Z,93394.09
2022-09-16T02:56:30.331Z,93388.09
2022-09-16T02:58:57.521Z,93385.88
2022-09-16T03:01:24.969Z,93384.94
2022-09-16T03:03:55.379Z,93394.22
2022-09-16T03:06:27.245Z,93387.44
2022-09-16T03:08:58.101Z,93386.22
2022-09-16T03:11:55.630Z,93378.94
2022-09-16T03:15:00.363Z,93385.19
2022-09-16T03:17:52.477Z,93380.47
2022-09-16T03:20:41.323Z,93375.56
2022-09-16T03:23:16.613Z,93370.88
2022-09-16T03:26:16.128Z,93377.38
2022-09-16T03:28:55.013Z,93366.81
2022-09-16T03:31:29.544Z,93370.31
2022-09-16T03:34:23.792Z,93368.13
2022-09-16T03:36:59.160Z,93369.03
2022-09-16T03:39:26.219Z,93366.88
2022-09-16T03:41:55.362Z,93363.53
2022-09-16T03:44:31.349Z,93364.50
2022-09-16T03:46:57.976Z,93351.59
2022-09-16T03:49:24.642Z,93353.56
2022-09-16T03:51:51.268Z,93357.84
2022-09-16T03:54:17.935Z,93358.56
2022-09-16T03:56:44.543Z,93359.78
2022-09-16T03:59:11.129Z,93355.19
2022-09-16T04:01:37.761Z,93351.81
2022-09-16T04:04:04.405Z,93351.72
2022-09-16T04:06:30.998Z,93348.66
2022-09-16T04:08:59.192Z,93351.44
2022-09-16T04:11:25.753Z,93351.44
2022-09-16T04:13:52.368Z,93355.63
2022-09-16T04:16:23.635Z,93341.00
2022-09-16T04:18:50.243Z,93339.69
2022-09-16T04:21:17.323Z,93335.38
2022-09-16T04:23:43.945Z,93334.03
2022-09-16T04:26:11.288Z,93330.22
2022-09-16T04:28:38.397Z,93338.50
2022-09-16T04:31:07.651Z,93330.09
2022-09-16T04:33:35.737Z,93331.63
2022-09-16T04:36:08.578Z,93325.03
2022-09-16T04:38:39.070Z,93333.66
2022-09-16T04:41:09.471Z,93336.19
2022-09-16T04:43:36.499Z,93335.84
2022-09-16T04:46:04.172Z,93326.06
2022-09-16T04:48:31.184Z,93326.56
2022-09-16T04:51:08.740Z,93333.28
2022-09-16T04:53:36.593Z,93320.22
2022-09-16T04:56:05.612Z,93313.41
2022-09-16T04:58:32.276Z,93321.56
2022-09-16T05:01:04.780Z,93316.56
2022-09-16T05:03:32.479Z,93322.81
2022-09-16T05:06:17.140Z,93311.84
2022-09-16T05:08:47.569Z,93321.75
2022-09-16T05:11:26.471Z,93322.81
2022-09-16T05:13:53.382Z,93323.16
2022-09-16T05:16:23.265Z,93321.19
2022-09-16T05:18:51.709Z,93326.69
2022-09-16T05:21:21.788Z,93321.72
2022-09-16T05:23:48.970Z,93323.34
2022-09-16T05:26:18.896Z,93321.41
2022-09-16T05:28:45.704Z,93322.66
2022-09-16T05:31:24.111Z,93321.28
2022-09-16T05:33:55.666Z,93318.44
2022-09-16T05:36:22.789Z,93318.69
2022-09-16T05:39:11.111Z,93308.56
2022-09-16T05:41:37.092Z,93311.34
2022-09-16T05:44:04.233Z,93312.44
2022-09-16T05:46:30.873Z,93319.25
2022-09-16T05:48:57.566Z,93315.66
2022-09-16T05:51:25.765Z,93309.94
2022-09-16T05:53:54.773Z,93311.84
2022-09-16T05:56:25.785Z,93318.84
2022-09-16T05:58:53.802Z,93309.94
2022-09-16T06:01:23.472Z,93312.50
2022-09-16T06:03:51.672Z,93319.19
2022-09-16T06:06:30.072Z,93312.78
2022-09-16T06:09:05.768Z,93318.09
2022-09-16T06:11:35.663Z,93311.13
2022-09-16T06:14:02.483Z,93308.84
2022-09-16T06:16:32.930Z,93317.25
2022-09-16T06:19:02.025Z,93311.94
2022-09-16T06:21:29.349Z,93316.78
2022-09-16T06:23:57.116Z,93317.75
2022-09-16T06:26:26.626Z,93316.44
2022-09-16T06:28:53.953Z,93321.25
2022-09-16T06:31:27.371Z,93317.09
2022-09-16T06:33:55.384Z,93314.16
2022-09-16T06:36:24.387Z,93302.81
2022-09-16T06:38:51.276Z,93309.31
2022-09-16T06:41:20.272Z,93304.56
2022-09-16T06:43:48.964Z,93302.94
2022-09-16T06:46:18.664Z,93314.81
2022-09-16T06:48:51.308Z,93303.25
2022-09-16T06:51:23.085Z,93304.91
2022-09-16T06:53:50.946Z,93301.22
2022-09-16T06:56:20.435Z,93304.09
2022-09-16T06:58:50.260Z,93308.38
2022-09-16T07:01:20.108Z,93303.75
2022-09-16T07:03:49.768Z,93301.56
2022-09-16T07:06:19.507Z,93305.75
2022-09-16T07:08:47.212Z,93305.94
2022-09-16T07:11:19.484Z,93311.78
2022-09-16T07:13:47.266Z,93309.03
2022-09-16T07:16:17.039Z,93314.75
2022-09-16T07:18:44.677Z,93316.25
2022-09-16T07:21:14.862Z,93309.88
2022-09-16T07:23:42.501Z,93311.84
2022-09-16T07:26:14.541Z,93313.44
2022-09-16T07:28:42.823Z,93314.97
2022-09-16T07:31:11.857Z,93318.00
2022-09-16T07:33:40.628Z,93316.63
2022-09-16T07:36:08.992Z,93313.22
2022-09-16T07:38:35.637Z,93319.78
2022-09-16T07:41:06.821Z,93323.13
2022-09-16T07:43:33.857Z,93314.53
2022-09-16T07:46:00.914Z,93316.28
2022-09-16T07:48:35.280Z,93325.88
2022-09-16T07:51:08.241Z,93327.78
2022-09-16T07:53:35.555Z,93329.28
2022-09-16T07:56:07.792Z,93323.59
2022-09-16T07:58:34.583Z,93323.03
2022-09-16T08:03:49.617Z,93327.22
2022-09-16T08:06:19.399Z,93320.75
2022-09-16T08:08:46.460Z,93311.25
2022-09-16T08:11:14.465Z,93316.13
2022-09-16T08:13:43.397Z,93320.28
2022-09-16T08:16:16.293Z,93323.72
2022-09-16T08:18:43.879Z,93320.19
2022-09-16T08:21:21.268Z,93321.28
2022-09-16T08:23:48.405Z,93327.72
2022-09-16T08:26:16.124Z,93326.84
2022-09-16T08:29:04.972Z,93326.19
2022-09-16T08:31:31.234Z,93320.13
2022-09-16T08:33:57.935Z,93316.25
2022-09-16T08:36:25.813Z,93325.19
2022-09-16T08:38:55.602Z,93321.19
2022-09-16T08:41:40.675Z,93326.63
2022-09-16T08:44:42.154Z,93333.50
2022-09-16T08:47:35.253Z,93336.59
2022-09-16T08:50:06.143Z,93328.50
2022-09-16T08:52:36.668Z,93330.84
2022-09-16T08:55:27.228Z,93332.91
2022-09-16T08:58:11.011Z,93350.50
2022-09-16T09:00:39.602Z,93381.13
2022-09-16T09:03:36.847Z,93379.69
2022-09-16T09:06:21.039Z,93389.47
2022-09-16T09:09:02.648Z,93390.78
2022-09-16T09:11:45.215Z,93393.13
2022-09-16T09:14:36.641Z,93392.69
2022-09-16T09:17:48.332Z,93392.09
2022-09-16T09:20:50.457Z,93393.31
2022-09-16T09:23:22.827Z,93392.88
2022-09-16T09:26:01.593Z,93387.59
2022-09-16T09:28:31.186Z,93384.84
2022-09-16T09:31:35.489Z,93385.94
2022-09-16T09:34:31.548Z,93384.84
2022-09-16T09:37:01.194Z,93392.94
2022-09-16T09:39:45.098Z,93404.00
2022-09-16T09:42:21.693Z,93395.66
2022-09-16T09:45:04.533Z,93393.59
2022-09-16T09:47:34.061Z,93402.31
2022-09-16T09:50:15.521Z,93404.84
2022-09-16T09:53:11.265Z,93405.31
2022-09-16T09:55:40.461Z,93396.72
2022-09-16T09:58:34.939Z,93390.91
2022-09-16T10:01:01.823Z,93394.59
2022-09-16T10:03:30.011Z,93393.88
2022-09-16T10:05:56.997Z,93393.31
2022-09-16T10:08:43.876Z,93398.94
2022-09-16T10:11:25.225Z,93398.38
2022-09-16T10:13:55.159Z,93400.09
2022-09-16T10:16:27.120Z,93397.63
2022-09-16T10:19:05.925Z,93395.97
2022-09-16T10:22:09.960Z,93399.19
2022-09-16T10:24:40.105Z,93404.97
2022-09-16T10:27:22.254Z,93395.44
2022-09-16T10:30:02.097Z,93403.25
2022-09-16T10:32:28.852Z,93392.13
2022-09-16T10:34:56.415Z,93396.50
2022-09-16T10:37:24.312Z,93395.09
2022-09-16T10:39:56.993Z,93396.53
2022-09-16T10:42:26.348Z,93385.94
2022-09-16T10:44:58.206Z,93386.00
2022-09-16T10:47:28.236Z,93385.63
2022-09-16T10:49:58.193Z,93387.38
2022-09-16T10:52:27.432Z,93391.78
2022-09-16T10:54:55.102Z,93397.28
2022-09-16T10:57:33.204Z,93403.44
2022-09-16T11:00:43.483Z,93399.03
2022-09-16T11:03:36.725Z,93401.81
2022-09-16T11:06:32.746Z,93414.56
2022-09-16T11:09:16.493Z,93410.59
2022-09-16T11:12:10.349Z,93404.13
2022-09-16T11:15:06.386Z,93413.13
2022-09-16T11:17:41.367Z,93410.63
2022-09-16T11:20:45.646Z,93411.50
2022-09-16T11:23:12.235Z,93414.03
2022-09-16T11:25:41.889Z,93421.88
2022-09-16T11:28:18.578Z,93419.34
2022-09-16T11:30:55.074Z,93415.34
2022-09-16T11:33:46.123Z,93412.81
2022-09-16T11:36:39.301Z,93421.53
2022-09-16T11:39:05.882Z,93421.03
2022-09-16T11:41:52.734Z,93421.63
2022-09-16T11:44:36.079Z,93426.13
2022-09-16T11:47:20.993Z,93429.47
2022-09-16T11:50:02.756Z,93424.59
2022-09-16T11:53:09.281Z,93429.66
2022-09-16T11:55:49.401Z,93422.59
2022-09-16T11:58:32.690Z,93412.66
2022-09-16T12:01:06.712Z,93414.88
2022-09-16T12:03:41.431Z,93413.88
2022-09-16T12:06:11.379Z,93410.72
2022-09-16T12:08:52.984Z,93421.31
2022-09-16T12:11:33.185Z,93418.03
2022-09-16T12:14:09.110Z,93411.13
2022-09-16T12:16:55.291Z,93402.13
2022-09-16T12:19:34.072Z,93402.75
2022-09-16T12:22:39.439Z,93397.13
2022-09-16T12:25:22.309Z,93387.94
2022-09-16T12:27:55.593Z,93378.28
2022-09-16T12:30:27.396Z,93392.38
2022-09-16T12:33:22.126Z,93398.00
2022-09-16T12:36:01.880Z,93399.47
2022-09-16T12:38:28.712Z,93394.84
2022-09-16T12:41:16.581Z,93400.44
2022-09-16T12:44:02.550Z,93387.16
2022-09-16T12:47:19.185Z,93402.16
2022-09-16T12:50:16.775Z,93404.75
2022-09-16T12:52:59.169Z,93406.72
2022-09-16T12:55:47.114Z,93401.63
2022-09-16T12:58:41.000Z,93398.72
2022-09-16T13:01:18.262Z,93409.38
2022-09-16T13:03:49.217Z,93418.56
2022-09-16T13:06:23.652Z,93408.75
2022-09-16T13:08:51.861Z,93411.28
2022-09-16T13:14:23.065Z,93413.34
2022-09-16T13:16:57.960Z,93418.69
2022-09-16T13:19:34.094Z,93417.16
2022-09-16T13:22:14.264Z,93431.72
2022-09-16T13:24:46.540Z,93424.69
2022-09-16T13:27:53.063Z,93421.66
2022-09-16T13:30:30.554Z,93421.03
2022-09-16T13:33:24.031Z,93422.19
2022-09-16T13:36:19.389Z,93424.06
2022-09-16T13:38:52.397Z,93427.72
2022-09-16T13:41:48.392Z,93424.31
2022-09-16T13:44:36.543Z,93430.97
2022-09-16T13:47:08.979Z,93434.22
2022-09-16T13:49:45.014Z,93439.88
2022-09-16T13:52:16.621Z,93436.88
2022-09-16T13:55:09.321Z,93439.84
2022-09-16T13:57:41.395Z,93438.16
2022-09-16T14:00:12.821Z,93436.59
2022-09-16T14:03:04.022Z,93439.44
2022-09-16T14:06:06.541Z,93449.31
2022-09-16T14:09:01.517Z,93450.31
2022-09-16T14:11:51.453Z,93452.75
2022-09-16T14:14:47.430Z,93446.31
2022-09-16T14:17:20.839Z,93453.22
2022-09-16T14:19:50.213Z,93457.50
2022-09-16T14:22:21.669Z,93448.03
2022-09-16T14:24:56.367Z,93445.84
2022-09-16T14:27:36.506Z,93439.28
2022-09-16T14:30:14.327Z,93439.03
2022-09-16T14:32:41.441Z,93441.66
2022-09-16T14:35:23.116Z,93446.41
2022-09-16T14:37:54.295Z,93433.31
2022-09-16T14:40:25.062Z,93438.13
2022-09-16T14:43:03.160Z,93432.56
2022-09-16T14:45:31.652Z,93425.91
2022-09-16T14:48:02.866Z,93425.78
2022-09-16T14:50:33.525Z,93422.28
2022-09-16T14:53:02.529Z,93424.59
2022-09-16T14:55:31.768Z,93410.28
2022-09-16T14:57:59.820Z,93412.72
2022-09-16T15:00:55.877Z,93406.56
2022-09-16T15:03:43.175Z,93407.38
2022-09-16T15:06:15.604Z,93411.72
2022-09-16T15:08:48.387Z,93410.59
2022-09-16T15:11:46.395Z,93405.81
2022-09-16T15:14:09.772Z,93407.59
2022-09-16T15:16:44.900Z,93417.66
2022-09-16T15:19:21.604Z,93426.63
2022-09-16T15:21:49.203Z,93425.47
2022-09-16T15:24:21.686Z,93430.63
2022-09-16T15:26:49.236Z,93429.50
2022-09-16T15:29:18.804Z,93425.59
2022-09-16T15:31:46.954Z,93425.66
2022-09-16T15:34:18.587Z,93425.44
2022-09-16T15:36:56.161Z,93433.84
2022-09-16T15:39:34.077Z,93431.19
2022-09-16T15:42:11.473Z,93430.56
2022-09-16T15:44:46.128Z,93432.66
2022-09-16T15:47:25.168Z,93431.63
2022-09-16T15:50:14.276Z,93433.53
2022-09-16T15:52:53.867Z,93427.91
2022-09-16T15:55:42.095Z,93431.28
2022-09-16T15:58:24.587Z,93422.78
2022-09-16T16:01:24.014Z,93422.69
2022-09-16T16:03:58.788Z,93431.84
2022-09-16T16:06:55.961Z,93426.56
2022-09-16T16:09:28.722Z,93433.97
2022-09-16T16:12:01.092Z,93429.88
2022-09-16T16:14:33.055Z,93432.97
2022-09-16T16:17:13.102Z,93427.56
2022-09-16T16:19:42.810Z,93432.38
2022-09-16T16:22:10.114Z,93429.50
2022-09-16T16:24:37.858Z,93421.91
2022-09-16T16:27:05.370Z,93423.94
2022-09-16T16:29:32.494Z,93425.84
2022-09-16T16:32:14.098Z,93424.97
2022-09-16T16:34:47.403Z,93412.97
2022-09-16T16:37:28.294Z,93417.59
2022-09-16T16:40:03.549Z,93408.25
2022-09-16T16:42:31.118Z,93420.16
2022-09-16T16:44:57.855Z,93416.72
2022-09-16T16:47:24.502Z,93420.25
2022-09-16T16:49:52.013Z,93416.31
2022-09-16T16:52:18.940Z,93418.19
2022-09-16T16:54:46.601Z,93423.13
2022-09-16T16:57:13.195Z,93435.03
2022-09-16T16:59:40.275Z,93429.09
2022-09-16T17:02:11.679Z,93424.91
2022-09-16T17:04:38.581Z,93418.94
2022-09-16T17:07:25.141Z,93417.94
2022-09-16T17:09:53.969Z,93413.63
2022-09-16T17:12:20.645Z,93412.16
2022-09-16T17:14:47.731Z,93417.69
2022-09-16T17:17:14.452Z,93418.94
2022-09-16T17:19:41.019Z,93414.34
2022-09-16T17:22:07.923Z,93417.19
2022-09-16T17:24:34.868Z,93409.84
2022-09-16T17:27:01.973Z,93414.03
2022-09-16T17:29:28.809Z,93421.50
2022-09-16T17:31:57.112Z,93421.84
2022-09-16T17:34:26.334Z,93432.03
2022-09-16T17:36:53.144Z,93427.59
2022-09-16T17:39:22.282Z,93430.34
2022-09-16T17:41:49.797Z,93439.00
2022-09-16T17:44:18.196Z,93442.09
2022-09-16T17:46:45.981Z,93440.25
2022-09-16T17:49:23.710Z,93442.81
2022-09-16T17:51:51.803Z,93439.22
2022-09-16T17:54:18.705Z,93445.56
2022-09-16T17:56:45.891Z,93433.22
2022-09-16T17:59:15.514Z,93432.72
2022-09-16T18:01:42.222Z,93416.94
2022-09-16T18:04:09.361Z,93426.72
2022-09-16T18:06:44.909Z,93427.25
2022-09-16T18:09:13.186Z,93444.97
2022-09-16T18:11:40.098Z,93452.38
2022-09-16T18:14:08.154Z,93452.38
2022-09-16T18:16:35.835Z,93453.16
2022-09-16T18:19:03.947Z,93460.97
2022-09-16T18:21:31.691Z,93451.59
2022-09-16T18:24:00.814Z,93464.59
2022-09-16T18:26:28.068Z,93461.09
2022-09-16T18:29:12.652Z,93463.41
2022-09-16T18:31:42.116Z,93472.34
2022-09-16T18:34:09.233Z,93477.25
2022-09-16T18:36:37.688Z,93487.84
2022-09-16T18:39:05.382Z,93499.03
2022-09-16T18:41:36.148Z,93488.88
2022-09-16T18:44:07.535Z,93494.91
2022-09-16T18:46:37.432Z,93485.31
2022-09-16T18:49:05.313Z,93484.91
2022-09-16T18:51:38.235Z,93488.72
2022-09-16T18:54:07.478Z,93485.88
2022-09-16T18:56:38.624Z,93481.81
2022-09-16T18:59:23.497Z,93481.78
2022-09-16T19:01:55.548Z,93477.38
2022-09-16T19:04:25.105Z,93490.25
2022-09-16T19:06:54.551Z,93491.53
2022-09-16T19:09:24.118Z,93486.72
2022-09-16T19:11:55.013Z,93498.72
2022-09-16T19:14:24.557Z,93492.69
2022-09-16T19:16:52.099Z,93491.53
2022-09-16T19:19:19.489Z,93494.69
2022-09-16T19:21:47.288Z,93483.66
2022-09-16T19:24:22.817Z,93490.31
2022-09-16T19:26:53.066Z,93501.50
2022-09-16T19:29:20.479Z,93512.81
2022-09-16T19:31:49.154Z,93523.78
2022-09-16T19:34:16.847Z,93510.69
2022-09-16T19:36:44.229Z,93512.00
2022-09-16T19:39:12.108Z,93505.72
2022-09-16T19:41:40.110Z,93503.06
2022-09-16T19:44:11.529Z,93495.72
2022-09-16T19:46:40.123Z,93497.84
2022-09-16T19:49:08.357Z,93493.09
2022-09-16T19:51:35.899Z,93497.38
2022-09-16T19:54:03.182Z,93505.88
2022-09-16T19:56:32.909Z,93513.81
2022-09-16T19:59:01.373Z,93507.88
2022-09-16T20:01:31.581Z,93513.47
2022-09-16T20:03:59.076Z,93520.94
2022-09-16T20:06:29.008Z,93526.78
2022-09-16T20:08:59.698Z,93536.28
2022-09-16T20:11:29.373Z,93526.34
2022-09-16T20:14:03.774Z,93529.38
2022-09-16T20:16:37.700Z,93528.19
2022-09-16T20:19:06.604Z,93533.41
2022-09-16T20:21:35.245Z,93526.16
2022-09-16T20:24:05.862Z,93535.47
2022-09-16T20:26:33.133Z,93534.97
2022-09-16T20:29:00.340Z,93525.09
2022-09-16T20:31:31.357Z,93523.97
2022-09-16T20:33:58.552Z,93525.19
2022-09-16T20:36:26.715Z,93509.41
2022-09-16T20:38:53.389Z,93513.28
2022-09-16T20:41:25.083Z,93510.72
2022-09-16T20:43:52.543Z,93515.75
2022-09-16T20:46:20.516Z,93530.91
2022-09-16T20:48:48.243Z,93518.56
2022-09-16T20:51:16.865Z,93510.69
2022-09-16T20:53:44.795Z,93500.06
2022-09-16T20:56:14.513Z,93508.09
2022-09-16T20:58:42.543Z,93515.59
2022-09-16T21:01:15.120Z,93516.13
2022-09-16T21:03:43.089Z,93516.63
2022-09-16T21:06:15.283Z,93509.03
2022-09-16T21:08:42.856Z,93521.19
2022-09-16T21:11:12.490Z,93532.16
2022-09-16T21:13:41.335Z,93524.06
2022-09-16T21:16:10.089Z,93529.47
2022-09-16T21:18:37.134Z,93526.69
2022-09-16T21:21:05.346Z,93519.66
2022-09-16T21:23:33.471Z,93522.00
2022-09-16T21:26:31.019Z,93524.31
2022-09-16T21:29:05.658Z,93517.78
2022-09-16T21:31:34.095Z,93529.03
2022-09-16T21:34:03.039Z,93534.00
2022-09-16T21:36:30.586Z,93525.66
2022-09-16T21:39:01.053Z,93531.28
2022-09-16T21:41:27.816Z,93528.53
2022-09-16T21:43:56.286Z,93528.13
2022-09-16T21:46:28.194Z,93527.25
2022-09-16T21:49:03.392Z,93534.25
2022-09-16T21:51:35.099Z,93542.50
2022-09-16T21:54:03.294Z,93540.94
2022-09-16T21:56:31.026Z,93558.88
2022-09-16T21:58:58.674Z,93550.44
2022-09-16T22:01:28.094Z,93550.28
2022-09-16T22:04:06.720Z,93549.44
2022-09-16T22:06:33.808Z,93549.88
2022-09-16T22:09:02.585Z,93556.53
2022-09-16T22:11:31.429Z,93559.22
2022-09-16T22:14:01.516Z,93561.28
2022-09-16T22:16:30.709Z,93562.09
2022-09-16T22:19:17.947Z,93562.81
2022-09-16T22:21:47.059Z,93562.53
2022-09-16T22:24:16.209Z,93561.97
2022-09-16T22:26:43.524Z,93559.13
2022-09-16T22:29:11.449Z,93556.25
2022-09-16T22:31:41.262Z,93556.63
2022-09-16T22:34:08.312Z,93555.63
2022-09-16T22:36:37.138Z,93553.66
2022-09-16T22:39:11.609Z,93557.91
2022-09-16T22:41:39.698Z,93551.69
2022-09-16T22:44:06.993Z,93552.41
2022-09-16T22:46:39.229Z,93556.03
2022-09-16T22:49:05.970Z,93548.97
2022-09-16T22:51:32.644Z,93543.09
2022-09-16T22:53:59.351Z,93547.44
2022-09-16T22:56:31.796Z,93553.41
2022-09-16T22:59:03.020Z,93536.75
2022-09-16T23:01:35.681Z,93548.41
2022-09-16T23:04:04.406Z,93536.56
2022-09-16T23:06:33.117Z,93539.34
2022-09-16T23:08:59.785Z,93545.94
2022-09-16T23:11:30.817Z,93546.13
2022-09-16T23:13:58.119Z,93550.41
2022-09-16T23:16:30.259Z,93548.22
2022-09-16T23:18:59.616Z,93550.88
2022-09-16T23:21:26.827Z,93548.06
2022-09-16T23:23:56.540Z,93548.94
2022-09-16T23:26:27.006Z,93553.91
2022-09-16T23:28:56.284Z,93546.78
2022-09-16T23:31:26.652Z,93549.38
2022-09-16T23:33:54.130Z,93549.34
2022-09-16T23:36:21.361Z,93557.84
2022-09-16T23:38:48.485Z,93550.69
2022-09-16T23:41:23.430Z,93545.97
2022-09-16T23:43:50.570Z,93551.28
2022-09-16T23:46:19.589Z,93557.63
2022-09-16T23:48:47.364Z,93552.16
2022-09-16T23:51:14.304Z,93549.81
2022-09-16T23:53:45.247Z,93537.75
2022-09-16T23:56:14.016Z,93543.06
2022-09-16T23:58:42.083Z,93543.72
